createdAt,value
2023-07-21T00:02:44.152Z,1.08
2023-07-21T00:05:48.703Z,0.95
2023-07-21T00:08:55.198Z,0.93
2023-07-21T00:12:00.471Z,0.80
2023-07-21T00:15:07.941Z,0.80
2023-07-21T00:18:12.159Z,1.02
2023-07-21T00:21:16.769Z,1.00
2023-07-21T00:24:21.850Z,0.90
2023-07-21T00:27:26.774Z,0.90
2023-07-21T00:30:32.006Z,0.80
2023-07-21T00:33:36.530Z,0.90
2023-07-21T00:36:41.270Z,0.80
2023-07-21T00:39:46.117Z,0.80
2023-07-21T00:42:50.906Z,0.93
2023-07-21T00:45:56.005Z,1.20
2023-07-21T00:49:00.456Z,0.95
2023-07-21T00:52:06.095Z,0.90
2023-07-21T00:55:11.330Z,1.05
2023-07-21T00:58:18.022Z,0.88
2023-07-21T01:01:24.270Z,0.80
2023-07-21T01:04:29.025Z,0.90
2023-07-21T01:07:34.876Z,1.10
2023-07-21T01:10:41.786Z,0.70
2023-07-21T01:13:50.768Z,0.90
2023-07-21T01:16:58.154Z,0.90
2023-07-21T01:20:05.776Z,0.90
2023-07-21T01:23:41.033Z,0.77
2023-07-21T01:26:50.041Z,1.00
2023-07-21T01:29:57.693Z,1.00
2023-07-21T01:33:04.341Z,0.95
2023-07-21T01:36:09.307Z,0.85
2023-07-21T01:39:14.403Z,1.10
2023-07-21T01:42:20.490Z,1.23
2023-07-21T01:45:25.347Z,1.00
2023-07-21T01:48:29.742Z,1.00
2023-07-21T01:51:36.017Z,1.00
2023-07-21T01:54:57.572Z,1.00
2023-07-21T01:58:07.585Z,0.98
2023-07-21T02:01:12.611Z,1.10
2023-07-21T02:04:18.235Z,1.10
2023-07-21T02:07:23.435Z,0.90
2023-07-21T02:10:28.262Z,1.25
2023-07-21T02:13:41.717Z,1.10
2023-07-21T02:16:47.464Z,1.05
2023-07-21T02:19:52.032Z,1.05
2023-07-21T02:22:59.045Z,1.08
2023-07-21T02:26:09.634Z,1.23
2023-07-21T02:29:14.493Z,0.98
2023-07-21T02:32:19.161Z,0.88
2023-07-21T02:35:24.001Z,1.10
2023-07-21T02:38:29.349Z,0.90
2023-07-21T02:41:34.518Z,1.10
2023-07-21T02:44:39.456Z,1.00
2023-07-21T02:47:44.193Z,0.90
2023-07-21T02:50:53.771Z,1.10
2023-07-21T02:53:58.654Z,1.00
2023-07-21T02:57:03.343Z,1.08
2023-07-21T03:00:12.549Z,1.02
2023-07-21T03:03:26.797Z,1.45
2023-07-21T03:06:42.286Z,1.20
2023-07-21T03:09:47.466Z,1.20
2023-07-21T03:13:00.396Z,1.20
2023-07-21T03:16:08.549Z,1.08
2023-07-21T03:19:15.539Z,1.02
2023-07-21T03:22:22.033Z,1.10
2023-07-21T03:25:27.771Z,1.13
2023-07-21T03:28:33.011Z,1.10
2023-07-21T03:31:37.952Z,1.20
2023-07-21T03:34:50.498Z,0.85
2023-07-21T03:37:57.544Z,1.10
2023-07-21T03:41:07.560Z,0.95
2023-07-21T03:44:14.548Z,1.08
2023-07-21T03:47:21.778Z,0.90
2023-07-21T03:50:34.771Z,0.93
2023-07-21T03:53:39.767Z,1.35
2023-07-21T03:56:47.816Z,1.15
2023-07-21T03:59:54.008Z,1.25
2023-07-21T04:02:58.505Z,1.20
2023-07-21T04:06:10.022Z,1.02
2023-07-21T04:09:15.391Z,1.20
2023-07-21T04:12:19.532Z,1.10
2023-07-21T04:15:26.219Z,1.08
2023-07-21T04:18:30.612Z,1.10
2023-07-21T04:21:35.303Z,1.15
2023-07-21T04:24:40.300Z,1.10
2023-07-21T04:27:51.700Z,1.25
2023-07-21T04:30:57.638Z,1.00
2023-07-21T04:34:03.119Z,0.95
2023-07-21T04:37:10.988Z,0.93
2023-07-21T04:40:19.045Z,1.00
2023-07-21T04:43:24.053Z,1.00
2023-07-21T04:46:29.226Z,1.20
2023-07-21T04:49:34.798Z,1.20
2023-07-21T04:52:39.778Z,0.90
2023-07-21T04:55:45.096Z,1.00
2023-07-21T04:58:50.715Z,1.10
2023-07-21T05:01:55.853Z,1.13
2023-07-21T05:05:00.818Z,1.00
2023-07-21T05:08:07.427Z,0.95
2023-07-21T05:11:12.207Z,1.00
2023-07-21T05:14:19.224Z,1.00
2023-07-21T05:17:43.822Z,1.10
2023-07-21T05:21:15.214Z,1.10
2023-07-21T05:24:24.012Z,1.00
2023-07-21T05:27:28.913Z,1.00
2023-07-21T05:30:37.910Z,1.02
2023-07-21T05:33:42.758Z,1.10
2023-07-21T05:36:49.541Z,0.82
2023-07-21T05:39:54.175Z,0.90
2023-07-21T05:43:04.188Z,0.95
2023-07-21T05:46:09.305Z,0.90
2023-07-21T05:49:20.466Z,0.90
2023-07-21T05:52:25.105Z,0.80
2023-07-21T05:55:30.083Z,1.08
2023-07-21T05:58:36.492Z,0.90
2023-07-21T06:01:41.022Z,1.10
2023-07-21T06:04:48.374Z,0.90
2023-07-21T06:08:10.957Z,0.70
2023-07-21T06:11:38.452Z,0.77
2023-07-21T06:15:12.927Z,0.88
2023-07-21T06:18:37.967Z,1.25
2023-07-21T06:21:44.352Z,0.90
2023-07-21T06:24:48.981Z,0.90
2023-07-21T06:27:53.846Z,0.70
2023-07-21T06:31:01.013Z,0.85
2023-07-21T06:34:24.050Z,1.02
2023-07-21T06:37:34.466Z,0.80
2023-07-21T06:40:59.510Z,0.60
2023-07-21T06:44:12.507Z,0.98
2023-07-21T06:47:35.933Z,1.00
2023-07-21T06:51:07.673Z,0.55
2023-07-21T06:54:12.986Z,0.90
2023-07-21T06:57:17.908Z,0.60
2023-07-21T07:00:24.969Z,0.60
2023-07-21T07:03:30.905Z,0.60
2023-07-21T07:06:36.719Z,0.52
2023-07-21T07:09:41.548Z,0.60
2023-07-21T07:12:46.292Z,0.57
2023-07-21T07:15:51.856Z,0.55
2023-07-21T07:18:56.322Z,0.40
2023-07-21T07:22:01.293Z,0.50
2023-07-21T07:25:07.107Z,0.60
2023-07-21T07:28:11.824Z,0.60
2023-07-21T07:31:16.788Z,0.38
2023-07-21T07:34:21.473Z,0.50
2023-07-21T07:37:28.533Z,0.55
2023-07-21T07:40:34.109Z,0.40
2023-07-21T07:43:40.076Z,0.47
2023-07-21T07:46:45.215Z,0.80
2023-07-21T07:49:50.182Z,0.50
2023-07-21T07:52:55.107Z,0.60
2023-07-21T07:56:00.032Z,0.70
2023-07-21T07:59:04.629Z,0.70
2023-07-21T08:02:09.238Z,0.80
2023-07-21T08:05:13.787Z,0.50
2023-07-21T08:08:20.601Z,0.70
2023-07-21T08:11:25.455Z,0.43
2023-07-21T08:14:30.319Z,0.60
2023-07-21T08:17:39.235Z,0.70
2023-07-21T08:20:44.692Z,0.80
2023-07-21T08:23:51.502Z,0.63
2023-07-21T08:26:56.255Z,0.73
2023-07-21T08:30:01.584Z,0.60
2023-07-21T08:33:08.140Z,0.60
2023-07-21T08:36:13.077Z,0.60
2023-07-21T08:39:18.635Z,0.90
2023-07-21T08:42:26.271Z,0.70
2023-07-21T08:45:34.877Z,0.75
2023-07-21T08:48:41.832Z,0.50
2023-07-21T08:51:46.688Z,0.70
2023-07-21T08:54:51.138Z,0.73
2023-07-21T08:58:02.288Z,0.70
2023-07-21T09:01:10.218Z,0.60
2023-07-21T09:04:26.370Z,0.60
2023-07-21T09:07:32.664Z,0.50
2023-07-21T09:10:37.585Z,0.60
2023-07-21T09:13:50.380Z,0.43
2023-07-21T09:20:08.591Z,0.60
2023-07-21T09:23:12.944Z,0.50
2023-07-21T09:26:26.697Z,0.50
2023-07-21T09:29:31.745Z,0.55
2023-07-21T09:32:42.696Z,0.50
2023-07-21T09:35:47.849Z,0.55
2023-07-21T09:38:52.668Z,0.50
2023-07-21T09:41:57.195Z,0.60
2023-07-21T09:45:02.274Z,0.50
2023-07-21T09:48:07.731Z,0.55
2023-07-21T09:51:12.478Z,0.50
2023-07-21T09:54:22.043Z,0.50
2023-07-21T09:57:28.493Z,0.60
2023-07-21T10:00:35.092Z,0.50
2023-07-21T10:03:40.171Z,0.60
2023-07-21T10:06:45.866Z,0.50
2023-07-21T10:09:51.165Z,0.63
2023-07-21T10:12:55.844Z,0.70
2023-07-21T10:16:07.413Z,0.55
2023-07-21T10:19:14.306Z,0.60
2023-07-21T10:22:26.700Z,0.68
2023-07-21T10:26:08.968Z,0.60
2023-07-21T10:29:17.560Z,0.70
2023-07-21T10:32:22.868Z,0.63
2023-07-21T10:35:40.971Z,0.50
2023-07-21T10:38:45.267Z,0.40
2023-07-21T10:41:52.645Z,0.68
2023-07-21T10:44:57.241Z,0.65
2023-07-21T10:48:12.928Z,0.70
2023-07-21T10:51:20.550Z,0.60
2023-07-21T10:54:25.523Z,0.50
2023-07-21T10:57:36.257Z,0.70
2023-07-21T11:00:48.522Z,0.88
2023-07-21T11:03:54.157Z,0.70
2023-07-21T11:07:00.776Z,0.70
2023-07-21T11:10:06.008Z,0.70
2023-07-21T11:13:10.910Z,1.10
2023-07-21T11:16:15.284Z,0.80
2023-07-21T11:19:21.710Z,0.68
2023-07-21T11:22:26.509Z,0.73
2023-07-21T11:25:32.880Z,0.63
2023-07-21T11:28:40.543Z,0.80
2023-07-21T11:31:45.473Z,0.70
2023-07-21T11:35:00.714Z,0.93
2023-07-21T11:38:10.448Z,0.88
2023-07-21T11:41:15.269Z,0.68
2023-07-21T11:44:32.090Z,0.60
2023-07-21T11:47:37.166Z,0.70
2023-07-21T11:50:56.174Z,0.70
2023-07-21T11:54:01.175Z,0.60
2023-07-21T11:57:06.240Z,0.90
2023-07-21T12:00:15.234Z,0.60
2023-07-21T12:03:19.859Z,0.80
2023-07-21T12:06:24.754Z,0.55
2023-07-21T12:09:30.154Z,0.68
2023-07-21T12:12:34.960Z,0.65
2023-07-21T12:15:39.999Z,0.60
2023-07-21T12:18:44.774Z,0.73
2023-07-21T12:21:49.370Z,0.80
2023-07-21T12:24:54.034Z,0.68
2023-07-21T12:27:59.066Z,0.70
2023-07-21T12:31:04.067Z,0.82
2023-07-21T12:34:10.201Z,1.00
2023-07-21T12:37:14.953Z,0.80
2023-07-21T12:40:19.709Z,0.70
2023-07-21T12:43:24.718Z,0.80
2023-07-21T12:46:30.166Z,0.77
2023-07-21T12:49:34.924Z,0.82
2023-07-21T12:52:39.521Z,0.60
2023-07-21T12:55:45.272Z,0.65
2023-07-21T12:58:49.826Z,0.90
2023-07-21T13:01:54.935Z,0.70
2023-07-21T13:04:59.928Z,0.82
2023-07-21T13:08:05.796Z,0.70
2023-07-21T13:11:10.728Z,0.60
2023-07-21T13:14:15.409Z,0.60
2023-07-21T13:17:19.693Z,0.50
2023-07-21T13:20:24.649Z,0.75
2023-07-21T13:23:29.228Z,0.60
2023-07-21T13:26:36.030Z,0.60
2023-07-21T13:29:40.996Z,0.60
2023-07-21T13:32:45.880Z,0.75
2023-07-21T13:35:51.136Z,0.63
2023-07-21T13:38:55.995Z,0.60
2023-07-21T13:42:00.412Z,0.77
2023-07-21T13:45:05.605Z,0.80
2023-07-21T13:48:13.493Z,0.90
2023-07-21T13:51:19.265Z,0.60
2023-07-21T13:54:24.440Z,0.60
2023-07-21T13:57:29.046Z,0.73
2023-07-21T14:00:33.874Z,1.10
2023-07-21T14:03:38.605Z,0.68
2023-07-21T14:06:43.240Z,1.00
2023-07-21T14:09:48.043Z,1.00
2023-07-21T14:12:52.807Z,1.27
2023-07-21T14:15:57.523Z,1.35
2023-07-21T14:19:06.794Z,1.45
2023-07-21T14:22:11.668Z,1.25
2023-07-21T14:25:16.299Z,1.40
2023-07-21T14:28:21.643Z,1.40
2023-07-21T14:31:27.287Z,1.30
2023-07-21T14:34:31.948Z,1.10
2023-07-21T14:37:36.628Z,1.10
2023-07-21T14:40:41.468Z,1.17
2023-07-21T14:43:46.142Z,1.20
2023-07-21T14:46:50.831Z,1.33
2023-07-21T14:49:55.300Z,1.23
2023-07-21T14:52:59.884Z,0.98
2023-07-21T14:56:05.882Z,1.25
2023-07-21T14:59:10.668Z,1.10
2023-07-21T15:02:16.032Z,1.00
2023-07-21T15:05:21.443Z,1.20
2023-07-21T15:08:26.173Z,1.15
2023-07-21T15:11:30.969Z,1.30
2023-07-21T15:14:35.842Z,1.20
2023-07-21T15:17:41.237Z,1.50
2023-07-21T15:20:45.968Z,1.67
2023-07-21T15:23:51.294Z,1.80
2023-07-21T15:26:56.054Z,1.85
2023-07-21T15:30:00.724Z,1.92
2023-07-21T15:33:05.578Z,1.92
2023-07-21T15:36:10.935Z,2.08
2023-07-21T15:39:15.704Z,2.10
2023-07-21T15:42:20.403Z,2.05
2023-07-21T15:45:24.979Z,2.05
2023-07-21T15:48:30.285Z,2.35
2023-07-21T15:51:35.131Z,2.40
2023-07-21T15:54:40.978Z,2.00
2023-07-21T15:57:47.395Z,1.95
2023-07-21T16:00:59.531Z,2.08
2023-07-21T16:04:04.478Z,2.55
2023-07-21T16:07:09.534Z,2.53
2023-07-21T16:10:15.158Z,2.38
2023-07-21T16:13:21.386Z,2.78
2023-07-21T16:16:26.063Z,2.60
2023-07-21T16:19:30.956Z,2.33
2023-07-21T16:22:36.113Z,2.38
2023-07-21T16:25:41.499Z,2.60
2023-07-21T16:28:46.568Z,2.67
2023-07-21T16:31:51.373Z,2.45
2023-07-21T16:34:56.152Z,2.88
2023-07-21T16:38:00.931Z,3.15
2023-07-21T16:41:05.627Z,3.45
2023-07-21T16:44:10.569Z,3.83
2023-07-21T16:47:15.199Z,3.33
2023-07-21T16:50:19.871Z,3.30
2023-07-21T16:53:24.774Z,3.58
2023-07-21T16:56:29.684Z,4.07
2023-07-21T16:59:42.666Z,3.90
2023-07-21T17:02:59.080Z,4.15
2023-07-21T17:06:04.996Z,3.70
2023-07-21T17:09:10.330Z,3.80
2023-07-21T17:12:16.663Z,3.58
2023-07-21T17:15:21.204Z,3.90
2023-07-21T17:18:26.242Z,4.65
2023-07-21T17:21:31.002Z,4.65
2023-07-21T17:24:35.824Z,4.22
2023-07-21T17:27:40.702Z,4.15
2023-07-21T17:30:45.111Z,4.05
2023-07-21T17:33:49.876Z,4.13
2023-07-21T17:36:54.718Z,3.83
2023-07-21T17:39:59.504Z,3.88
2023-07-21T17:43:04.692Z,4.10
2023-07-21T17:46:09.540Z,3.85
2023-07-21T17:49:14.419Z,3.45
2023-07-21T17:52:18.825Z,4.32
2023-07-21T17:55:23.282Z,3.90
2023-07-21T17:58:28.271Z,3.50
2023-07-21T18:01:33.207Z,3.80
2023-07-21T18:04:38.887Z,4.00
2023-07-21T18:07:43.815Z,4.00
2023-07-21T18:10:49.362Z,4.22
2023-07-21T18:13:54.967Z,3.72
2023-07-21T18:16:59.305Z,3.70
2023-07-21T18:20:05.275Z,3.72
2023-07-21T18:23:10.129Z,3.80
2023-07-21T18:26:14.899Z,3.85
2023-07-21T18:29:19.424Z,3.35
2023-07-21T18:32:24.310Z,3.53
2023-07-21T18:35:29.975Z,3.35
2023-07-21T18:38:34.493Z,3.20
2023-07-21T18:41:39.525Z,3.60
2023-07-21T18:44:44.722Z,3.08
2023-07-21T18:47:50.133Z,3.20
2023-07-21T18:50:54.827Z,3.20
2023-07-21T18:53:59.625Z,2.58
2023-07-21T18:57:04.872Z,2.67
2023-07-21T19:00:13.228Z,2.63
2023-07-21T19:03:17.811Z,2.15
2023-07-21T19:06:22.407Z,2.78
2023-07-21T19:09:32.434Z,2.50
2023-07-21T19:12:37.318Z,2.55
2023-07-21T19:15:42.030Z,2.25
2023-07-21T19:18:47.069Z,2.03
2023-07-21T19:21:52.348Z,1.95
2023-07-21T19:24:56.880Z,2.20
2023-07-21T19:28:01.867Z,2.20
2023-07-21T19:31:06.844Z,2.20
2023-07-21T19:34:11.602Z,2.08
2023-07-21T19:37:16.372Z,2.25
2023-07-21T19:40:21.232Z,1.85
2023-07-21T19:43:26.295Z,2.30
2023-07-21T19:46:32.928Z,2.40
2023-07-21T19:49:37.416Z,2.10
2023-07-21T19:52:42.216Z,2.35
2023-07-21T19:55:47.140Z,2.05
2023-07-21T19:58:51.778Z,1.98
2023-07-21T20:01:56.618Z,1.77
2023-07-21T20:05:01.527Z,2.15
2023-07-21T20:08:06.332Z,1.90
2023-07-21T20:11:11.098Z,1.85
2023-07-21T20:14:15.874Z,1.60
2023-07-21T20:17:20.429Z,1.90
2023-07-21T20:20:25.059Z,2.10
2023-07-21T20:23:29.915Z,1.88
2023-07-21T20:26:34.735Z,2.08
2023-07-21T20:29:39.589Z,1.98
2023-07-21T20:32:46.033Z,1.63
2023-07-21T20:35:50.963Z,2.22
2023-07-21T20:38:55.731Z,2.25
2023-07-21T20:42:00.172Z,2.00
2023-07-21T20:45:05.720Z,2.20
2023-07-21T20:48:10.938Z,2.28
2023-07-21T20:51:15.685Z,2.40
2023-07-21T20:54:20.265Z,2.03
2023-07-21T20:57:24.885Z,2.30
2023-07-21T21:00:29.564Z,1.92
2023-07-21T21:03:34.125Z,2.10
2023-07-21T21:06:38.604Z,2.35
2023-07-21T21:09:43.247Z,2.70
2023-07-21T21:12:47.844Z,1.98
2023-07-21T21:15:56.412Z,2.40
2023-07-21T21:19:01.598Z,2.50
2023-07-21T21:22:06.639Z,2.10
2023-07-21T21:25:11.361Z,2.60
2023-07-21T21:28:16.191Z,2.70
2023-07-21T21:31:21.161Z,2.70
2023-07-21T21:34:25.508Z,2.42
2023-07-21T21:37:30.082Z,2.42
2023-07-21T21:40:34.769Z,2.25
2023-07-21T21:43:39.832Z,2.50
2023-07-21T21:46:44.867Z,2.60
2023-07-21T21:49:50.887Z,2.50
2023-07-21T21:52:55.776Z,2.47
2023-07-21T21:56:01.913Z,2.53
2023-07-21T21:59:07.333Z,2.47
2023-07-21T22:02:11.836Z,2.47
2023-07-21T22:05:16.453Z,2.40
2023-07-21T22:08:21.397Z,2.63
2023-07-21T22:11:26.442Z,2.90
2023-07-21T22:14:31.349Z,2.70
2023-07-21T22:17:35.879Z,2.58
2023-07-21T22:20:40.721Z,2.63
2023-07-21T22:23:45.439Z,2.55
2023-07-21T22:26:50.854Z,2.97
2023-07-21T22:29:55.285Z,3.00
2023-07-21T22:33:01.424Z,2.83
2023-07-21T22:36:10.420Z,2.67
2023-07-21T22:39:14.804Z,3.45
2023-07-21T22:42:19.716Z,3.10
2023-07-21T22:45:24.658Z,2.88
2023-07-21T22:48:29.490Z,2.92
2023-07-21T22:51:33.925Z,3.28
2023-07-21T22:54:38.355Z,3.38
2023-07-21T22:57:43.211Z,3.40
2023-07-21T23:00:48.104Z,3.50
2023-07-21T23:03:53.298Z,2.92
2023-07-21T23:06:58.254Z,3.00
2023-07-21T23:10:03.557Z,2.83
2023-07-21T23:13:07.963Z,2.97
2023-07-21T23:16:12.477Z,3.90
2023-07-21T23:19:17.272Z,3.08
2023-07-21T23:22:22.070Z,3.15
2023-07-21T23:25:28.436Z,3.15
2023-07-21T23:28:33.301Z,2.90
2023-07-21T23:31:38.685Z,2.80
2023-07-21T23:34:43.777Z,3.15
2023-07-21T23:37:48.822Z,3.05
2023-07-21T23:40:53.432Z,3.47
2023-07-21T23:43:57.767Z,3.00
2023-07-21T23:47:02.622Z,3.25
2023-07-21T23:50:08.809Z,3.00
2023-07-21T23:53:14.107Z,2.90
2023-07-21T23:56:18.546Z,3.20
2023-07-21T23:59:23.224Z,3.22
